sensor_id;sensor_type;location;lat;lon;timestamp;P1;durP1;ratioP1;P2;durP2;ratioP2
32082;SDS011;18597;48.328;7.932;2024-02-21T00:02:19;10.63;;;5.63;;
32082;SDS011;18597;48.328;7.932;2024-02-21T00:04:45;19.10;;;4.80;;
32082;SDS011;18597;48.328;7.932;2024-02-21T00:07:11;10.73;;;6.50;;
32082;SDS011;18597;48.328;7.932;2024-02-21T00:09:37;6.70;;;3.43;;
32082;SDS011;18597;48.328;7.932;2024-02-21T00:12:03;19.97;;;5.43;;
32082;SDS011;18597;48.328;7.932;2024-02-21T00:14:30;8.07;;;5.43;;
32082;SDS011;18597;48.328;7.932;2024-02-21T00:16:56;11.70;;;5.27;;
32082;SDS011;18597;48.328;7.932;2024-02-21T00:19:22;14.20;;;6.13;;
32082;SDS011;18597;48.328;7.932;2024-02-21T00:21:47;8.80;;;4.73;;
32082;SDS011;18597;48.328;7.932;2024-02-21T00:24:13;11.00;;;5.43;;
32082;SDS011;18597;48.328;7.932;2024-02-21T00:26:39;8.43;;;5.50;;
32082;SDS011;18597;48.328;7.932;2024-02-21T00:29:05;18.60;;;5.70;;
32082;SDS011;18597;48.328;7.932;2024-02-21T00:31:31;7.80;;;5.90;;
32082;SDS011;18597;48.328;7.932;2024-02-21T00:33:57;10.90;;;5.10;;
32082;SDS011;18597;48.328;7.932;2024-02-21T00:36:23;9.90;;;5.10;;
32082;SDS011;18597;48.328;7.932;2024-02-21T00:38:49;8.10;;;5.80;;
32082;SDS011;18597;48.328;7.932;2024-02-21T00:41:14;7.97;;;5.17;;
32082;SDS011;18597;48.328;7.932;2024-02-21T00:43:41;5.60;;;4.53;;
32082;SDS011;18597;48.328;7.932;2024-02-21T00:46:07;16.70;;;4.90;;
32082;SDS011;18597;48.328;7.932;2024-02-21T00:48:33;9.63;;;4.33;;
32082;SDS011;18597;48.328;7.932;2024-02-21T00:50:59;7.23;;;4.50;;
32082;SDS011;18597;48.328;7.932;2024-02-21T00:53:25;10.27;;;4.47;;
32082;SDS011;18597;48.328;7.932;2024-02-21T00:55:51;10.50;;;4.30;;
32082;SDS011;18597;48.328;7.932;2024-02-21T00:58:17;10.50;;;4.33;;
32082;SDS011;18597;48.328;7.932;2024-02-21T01:00:42;11.63;;;5.13;;
32082;SDS011;18597;48.328;7.932;2024-02-21T01:03:08;10.03;;;5.57;;
32082;SDS011;18597;48.328;7.932;2024-02-21T01:05:34;7.60;;;3.60;;
32082;SDS011;18597;48.328;7.932;2024-02-21T01:08:00;16.40;;;5.10;;
32082;SDS011;18597;48.328;7.932;2024-02-21T01:10:26;8.70;;;4.73;;
32082;SDS011;18597;48.328;7.932;2024-02-21T01:12:52;5.90;;;3.80;;
32082;SDS011;18597;48.328;7.932;2024-02-21T01:15:18;4.43;;;4.00;;
32082;SDS011;18597;48.328;7.932;2024-02-21T01:17:43;5.53;;;4.23;;
32082;SDS011;18597;48.328;7.932;2024-02-21T01:20:09;8.23;;;3.77;;
32082;SDS011;18597;48.328;7.932;2024-02-21T01:22:35;10.10;;;4.37;;
32082;SDS011;18597;48.328;7.932;2024-02-21T01:25:01;12.03;;;4.43;;
32082;SDS011;18597;48.328;7.932;2024-02-21T01:27:27;5.97;;;3.70;;
32082;SDS011;18597;48.328;7.932;2024-02-21T01:29:54;4.00;;;3.80;;
32082;SDS011;18597;48.328;7.932;2024-02-21T01:32:19;11.30;;;4.27;;
32082;SDS011;18597;48.328;7.932;2024-02-21T01:34:47;8.40;;;3.70;;
32082;SDS011;18597;48.328;7.932;2024-02-21T01:37:12;16.70;;;5.47;;
32082;SDS011;18597;48.328;7.932;2024-02-21T01:39:38;10.23;;;4.60;;
32082;SDS011;18597;48.328;7.932;2024-02-21T01:42:04;10.60;;;4.57;;
32082;SDS011;18597;48.328;7.932;2024-02-21T01:44:30;10.77;;;4.37;;
32082;SDS011;18597;48.328;7.932;2024-02-21T01:46:56;16.20;;;4.27;;
32082;SDS011;18597;48.328;7.932;2024-02-21T01:49:22;13.57;;;3.83;;
32082;SDS011;18597;48.328;7.932;2024-02-21T01:51:48;5.67;;;4.10;;
32082;SDS011;18597;48.328;7.932;2024-02-21T01:54:16;4.87;;;3.97;;
32082;SDS011;18597;48.328;7.932;2024-02-21T01:56:43;9.10;;;4.33;;
32082;SDS011;18597;48.328;7.932;2024-02-21T01:59:11;9.83;;;4.23;;
32082;SDS011;18597;48.328;7.932;2024-02-21T02:01:38;4.23;;;3.47;;
32082;SDS011;18597;48.328;7.932;2024-02-21T02:04:05;9.90;;;3.70;;
32082;SDS011;18597;48.328;7.932;2024-02-21T02:06:32;6.63;;;3.90;;
32082;SDS011;18597;48.328;7.932;2024-02-21T02:08:58;6.77;;;3.83;;
32082;SDS011;18597;48.328;7.932;2024-02-21T02:11:23;7.37;;;3.63;;
32082;SDS011;18597;48.328;7.932;2024-02-21T02:13:49;8.50;;;4.63;;
32082;SDS011;18597;48.328;7.932;2024-02-21T02:16:15;5.40;;;3.67;;
32082;SDS011;18597;48.328;7.932;2024-02-21T02:18:41;8.13;;;4.70;;
32082;SDS011;18597;48.328;7.932;2024-02-21T02:21:10;8.73;;;4.20;;
32082;SDS011;18597;48.328;7.932;2024-02-21T02:23:47;6.93;;;4.40;;
32082;SDS011;18597;48.328;7.932;2024-02-21T02:26:14;3.77;;;3.47;;
32082;SDS011;18597;48.328;7.932;2024-02-21T02:28:40;13.57;;;3.77;;
32082;SDS011;18597;48.328;7.932;2024-02-21T02:31:06;7.80;;;4.10;;
32082;SDS011;18597;48.328;7.932;2024-02-21T02:33:31;10.27;;;4.60;;
32082;SDS011;18597;48.328;7.932;2024-02-21T02:35:57;5.90;;;4.17;;
32082;SDS011;18597;48.328;7.932;2024-02-21T02:38:23;6.83;;;3.87;;
32082;SDS011;18597;48.328;7.932;2024-02-21T02:40:49;4.43;;;3.97;;
32082;SDS011;18597;48.328;7.932;2024-02-21T02:43:15;3.93;;;3.63;;
32082;SDS011;18597;48.328;7.932;2024-02-21T02:45:41;6.97;;;4.53;;
32082;SDS011;18597;48.328;7.932;2024-02-21T02:48:07;7.10;;;4.70;;
32082;SDS011;18597;48.328;7.932;2024-02-21T02:50:33;7.53;;;4.43;;
32082;SDS011;18597;48.328;7.932;2024-02-21T02:52:59;6.80;;;4.70;;
32082;SDS011;18597;48.328;7.932;2024-02-21T02:55:25;8.77;;;3.90;;
32082;SDS011;18597;48.328;7.932;2024-02-21T02:57:51;8.33;;;4.43;;
32082;SDS011;18597;48.328;7.932;2024-02-21T03:00:17;5.60;;;3.93;;
32082;SDS011;18597;48.328;7.932;2024-02-21T03:02:43;7.63;;;4.13;;
32082;SDS011;18597;48.328;7.932;2024-02-21T03:05:12;4.87;;;4.40;;
32082;SDS011;18597;48.328;7.932;2024-02-21T03:07:40;5.50;;;4.40;;
32082;SDS011;18597;48.328;7.932;2024-02-21T03:10:07;8.27;;;4.70;;
32082;SDS011;18597;48.328;7.932;2024-02-21T03:12:33;9.80;;;5.00;;
32082;SDS011;18597;48.328;7.932;2024-02-21T03:14:59;8.90;;;4.80;;
32082;SDS011;18597;48.328;7.932;2024-02-21T03:17:25;6.13;;;5.53;;
32082;SDS011;18597;48.328;7.932;2024-02-21T03:19:53;7.27;;;4.73;;
32082;SDS011;18597;48.328;7.932;2024-02-21T03:22:20;6.00;;;4.37;;
32082;SDS011;18597;48.328;7.932;2024-02-21T03:24:47;4.83;;;4.23;;
32082;SDS011;18597;48.328;7.932;2024-02-21T03:27:13;9.00;;;4.33;;
32082;SDS011;18597;48.328;7.932;2024-02-21T03:29:39;8.67;;;3.87;;
32082;SDS011;18597;48.328;7.932;2024-02-21T03:32:05;7.67;;;4.00;;
32082;SDS011;18597;48.328;7.932;2024-02-21T03:34:31;8.40;;;4.57;;
32082;SDS011;18597;48.328;7.932;2024-02-21T03:36:56;14.10;;;4.93;;
32082;SDS011;18597;48.328;7.932;2024-02-21T03:39:24;16.90;;;7.10;;
32082;SDS011;18597;48.328;7.932;2024-02-21T03:41:49;9.33;;;4.40;;
32082;SDS011;18597;48.328;7.932;2024-02-21T03:44:16;11.40;;;5.50;;
32082;SDS011;18597;48.328;7.932;2024-02-21T03:46:42;13.03;;;5.30;;
32082;SDS011;18597;48.328;7.932;2024-02-21T03:49:08;13.17;;;4.93;;
32082;SDS011;18597;48.328;7.932;2024-02-21T03:51:33;17.73;;;6.20;;
32082;SDS011;18597;48.328;7.932;2024-02-21T03:54:00;12.10;;;6.20;;
32082;SDS011;18597;48.328;7.932;2024-02-21T03:56:26;12.80;;;5.53;;
32082;SDS011;18597;48.328;7.932;2024-02-21T03:58:52;9.10;;;5.17;;
32082;SDS011;18597;48.328;7.932;2024-02-21T04:01:18;8.83;;;4.93;;
32082;SDS011;18597;48.328;7.932;2024-02-21T04:03:44;9.10;;;5.37;;
32082;SDS011;18597;48.328;7.932;2024-02-21T04:06:10;8.33;;;5.13;;
32082;SDS011;18597;48.328;7.932;2024-02-21T04:08:36;15.53;;;4.97;;
32082;SDS011;18597;48.328;7.932;2024-02-21T04:11:01;11.10;;;5.23;;
32082;SDS011;18597;48.328;7.932;2024-02-21T04:13:28;9.40;;;5.80;;
32082;SDS011;18597;48.328;7.932;2024-02-21T04:15:53;12.83;;;5.00;;
32082;SDS011;18597;48.328;7.932;2024-02-21T04:18:19;8.83;;;5.53;;
32082;SDS011;18597;48.328;7.932;2024-02-21T04:20:45;13.60;;;5.10;;
32082;SDS011;18597;48.328;7.932;2024-02-21T04:23:11;8.17;;;4.27;;
32082;SDS011;18597;48.328;7.932;2024-02-21T04:25:37;13.20;;;5.40;;
32082;SDS011;18597;48.328;7.932;2024-02-21T04:28:03;16.87;;;6.07;;
32082;SDS011;18597;48.328;7.932;2024-02-21T04:30:30;8.80;;;5.20;;
32082;SDS011;18597;48.328;7.932;2024-02-21T04:32:55;6.57;;;4.73;;
32082;SDS011;18597;48.328;7.932;2024-02-21T04:35:21;10.77;;;5.00;;
32082;SDS011;18597;48.328;7.932;2024-02-21T04:37:47;8.40;;;4.30;;
32082;SDS011;18597;48.328;7.932;2024-02-21T04:40:13;8.10;;;4.20;;
32082;SDS011;18597;48.328;7.932;2024-02-21T04:42:39;10.13;;;3.80;;
32082;SDS011;18597;48.328;7.932;2024-02-21T04:45:05;11.20;;;4.70;;
32082;SDS011;18597;48.328;7.932;2024-02-21T04:47:32;11.80;;;4.60;;
32082;SDS011;18597;48.328;7.932;2024-02-21T04:49:57;12.43;;;5.80;;
32082;SDS011;18597;48.328;7.932;2024-02-21T04:52:23;8.53;;;4.50;;
32082;SDS011;18597;48.328;7.932;2024-02-21T04:54:49;15.20;;;4.40;;
32082;SDS011;18597;48.328;7.932;2024-02-21T04:57:15;16.03;;;5.33;;
32082;SDS011;18597;48.328;7.932;2024-02-21T04:59:43;11.37;;;5.20;;
32082;SDS011;18597;48.328;7.932;2024-02-21T05:02:10;20.90;;;7.53;;
32082;SDS011;18597;48.328;7.932;2024-02-21T05:04:36;14.77;;;6.60;;
32082;SDS011;18597;48.328;7.932;2024-02-21T05:07:03;8.30;;;5.80;;
32082;SDS011;18597;48.328;7.932;2024-02-21T05:09:30;9.40;;;5.33;;
32082;SDS011;18597;48.328;7.932;2024-02-21T05:11:56;9.23;;;4.90;;
32082;SDS011;18597;48.328;7.932;2024-02-21T05:14:24;8.80;;;5.43;;
32082;SDS011;18597;48.328;7.932;2024-02-21T05:16:51;17.90;;;5.77;;
32082;SDS011;18597;48.328;7.932;2024-02-21T05:19:18;12.23;;;4.90;;
32082;SDS011;18597;48.328;7.932;2024-02-21T05:21:44;14.10;;;6.23;;
32082;SDS011;18597;48.328;7.932;2024-02-21T05:24:10;15.03;;;5.00;;
32082;SDS011;18597;48.328;7.932;2024-02-21T05:26:36;10.47;;;5.40;;
32082;SDS011;18597;48.328;7.932;2024-02-21T05:29:01;15.43;;;6.63;;
32082;SDS011;18597;48.328;7.932;2024-02-21T05:31:31;11.70;;;5.60;;
32082;SDS011;18597;48.328;7.932;2024-02-21T05:34:23;12.60;;;4.73;;
32082;SDS011;18597;48.328;7.932;2024-02-21T05:36:49;7.03;;;4.60;;
32082;SDS011;18597;48.328;7.932;2024-02-21T05:39:15;13.20;;;5.60;;
32082;SDS011;18597;48.328;7.932;2024-02-21T05:41:43;12.63;;;5.73;;
32082;SDS011;18597;48.328;7.932;2024-02-21T05:44:10;7.10;;;4.93;;
32082;SDS011;18597;48.328;7.932;2024-02-21T05:46:36;8.57;;;6.07;;
32082;SDS011;18597;48.328;7.932;2024-02-21T05:49:02;14.17;;;6.07;;
32082;SDS011;18597;48.328;7.932;2024-02-21T05:51:27;15.43;;;5.67;;
32082;SDS011;18597;48.328;7.932;2024-02-21T05:53:58;10.13;;;5.13;;
32082;SDS011;18597;48.328;7.932;2024-02-21T05:56:23;14.63;;;6.10;;
32082;SDS011;18597;48.328;7.932;2024-02-21T05:58:49;8.63;;;5.20;;
32082;SDS011;18597;48.328;7.932;2024-02-21T06:01:15;14.83;;;5.53;;
32082;SDS011;18597;48.328;7.932;2024-02-21T06:03:41;25.37;;;6.63;;
32082;SDS011;18597;48.328;7.932;2024-02-21T06:06:07;20.03;;;7.17;;
32082;SDS011;18597;48.328;7.932;2024-02-21T06:08:32;19.80;;;7.93;;
32082;SDS011;18597;48.328;7.932;2024-02-21T06:10:58;9.97;;;7.23;;
32082;SDS011;18597;48.328;7.932;2024-02-21T06:13:24;18.50;;;6.90;;
32082;SDS011;18597;48.328;7.932;2024-02-21T06:15:50;19.03;;;6.77;;
32082;SDS011;18597;48.328;7.932;2024-02-21T06:18:17;11.27;;;6.67;;
32082;SDS011;18597;48.328;7.932;2024-02-21T06:20:43;27.27;;;7.23;;
32082;SDS011;18597;48.328;7.932;2024-02-21T06:23:11;18.80;;;7.70;;
32082;SDS011;18597;48.328;7.932;2024-02-21T06:25:37;27.10;;;9.07;;
32082;SDS011;18597;48.328;7.932;2024-02-21T06:28:04;23.47;;;8.33;;
32082;SDS011;18597;48.328;7.932;2024-02-21T06:30:30;17.40;;;8.27;;
32082;SDS011;18597;48.328;7.932;2024-02-21T06:32:56;14.93;;;7.73;;
32082;SDS011;18597;48.328;7.932;2024-02-21T06:35:24;17.93;;;8.20;;
32082;SDS011;18597;48.328;7.932;2024-02-21T06:37:50;20.30;;;8.20;;
32082;SDS011;18597;48.328;7.932;2024-02-21T06:40:17;10.90;;;8.10;;
32082;SDS011;18597;48.328;7.932;2024-02-21T06:42:45;17.67;;;7.37;;
32082;SDS011;18597;48.328;7.932;2024-02-21T06:45:11;17.93;;;7.53;;
32082;SDS011;18597;48.328;7.932;2024-02-21T06:47:37;15.10;;;6.77;;
32082;SDS011;18597;48.328;7.932;2024-02-21T06:50:03;9.10;;;7.03;;
32082;SDS011;18597;48.328;7.932;2024-02-21T06:52:29;11.10;;;7.00;;
32082;SDS011;18597;48.328;7.932;2024-02-21T06:54:56;15.60;;;8.47;;
32082;SDS011;18597;48.328;7.932;2024-02-21T06:57:22;14.87;;;9.87;;
32082;SDS011;18597;48.328;7.932;2024-02-21T06:59:48;20.67;;;9.63;;
32082;SDS011;18597;48.328;7.932;2024-02-21T07:02:14;24.10;;;9.10;;
32082;SDS011;18597;48.328;7.932;2024-02-21T07:04:40;15.97;;;8.00;;
32082;SDS011;18597;48.328;7.932;2024-02-21T07:07:06;13.83;;;8.00;;
32082;SDS011;18597;48.328;7.932;2024-02-21T07:09:31;14.20;;;7.07;;
32082;SDS011;18597;48.328;7.932;2024-02-21T07:11:58;13.53;;;7.17;;
32082;SDS011;18597;48.328;7.932;2024-02-21T07:14:24;14.67;;;8.10;;
32082;SDS011;18597;48.328;7.932;2024-02-21T07:16:50;16.20;;;8.90;;
32082;SDS011;18597;48.328;7.932;2024-02-21T07:19:16;17.80;;;7.93;;
32082;SDS011;18597;48.328;7.932;2024-02-21T07:21:42;14.70;;;8.13;;
32082;SDS011;18597;48.328;7.932;2024-02-21T07:24:08;18.97;;;7.63;;
32082;SDS011;18597;48.328;7.932;2024-02-21T07:26:34;10.47;;;8.10;;
32082;SDS011;18597;48.328;7.932;2024-02-21T07:29:00;45.10;;;23.97;;
32082;SDS011;18597;48.328;7.932;2024-02-21T07:31:26;20.67;;;11.70;;
32082;SDS011;18597;48.328;7.932;2024-02-21T07:33:52;15.07;;;9.37;;
32082;SDS011;18597;48.328;7.932;2024-02-21T07:36:27;12.37;;;7.77;;
32082;SDS011;18597;48.328;7.932;2024-02-21T07:38:56;16.10;;;8.40;;
32082;SDS011;18597;48.328;7.932;2024-02-21T07:41:21;31.07;;;11.00;;
32082;SDS011;18597;48.328;7.932;2024-02-21T07:43:47;16.83;;;10.00;;
32082;SDS011;18597;48.328;7.932;2024-02-21T07:46:15;17.70;;;11.87;;
32082;SDS011;18597;48.328;7.932;2024-02-21T07:48:40;15.03;;;10.67;;
32082;SDS011;18597;48.328;7.932;2024-02-21T07:51:06;7.07;;;6.30;;
32082;SDS011;18597;48.328;7.932;2024-02-21T07:53:32;11.33;;;7.20;;
32082;SDS011;18597;48.328;7.932;2024-02-21T07:55:58;8.60;;;5.60;;
32082;SDS011;18597;48.328;7.932;2024-02-21T07:58:24;11.33;;;7.97;;
32082;SDS011;18597;48.328;7.932;2024-02-21T08:00:50;13.40;;;7.27;;
32082;SDS011;18597;48.328;7.932;2024-02-21T08:03:16;14.60;;;7.37;;
32082;SDS011;18597;48.328;7.932;2024-02-21T08:05:42;15.30;;;9.10;;
32082;SDS011;18597;48.328;7.932;2024-02-21T08:08:09;11.93;;;7.60;;
32082;SDS011;18597;48.328;7.932;2024-02-21T08:10:34;14.30;;;7.70;;
32082;SDS011;18597;48.328;7.932;2024-02-21T08:13:00;13.63;;;8.40;;
32082;SDS011;18597;48.328;7.932;2024-02-21T08:15:26;19.57;;;12.47;;
32082;SDS011;18597;48.328;7.932;2024-02-21T08:17:55;15.40;;;7.03;;
32082;SDS011;18597;48.328;7.932;2024-02-21T08:20:24;27.77;;;12.07;;
32082;SDS011;18597;48.328;7.932;2024-02-21T08:22:51;40.53;;;17.73;;
32082;SDS011;18597;48.328;7.932;2024-02-21T08:25:17;21.10;;;11.20;;
32082;SDS011;18597;48.328;7.932;2024-02-21T08:27:43;28.77;;;6.83;;
32082;SDS011;18597;48.328;7.932;2024-02-21T08:30:09;28.17;;;15.63;;
32082;SDS011;18597;48.328;7.932;2024-02-21T08:32:36;16.13;;;7.93;;
32082;SDS011;18597;48.328;7.932;2024-02-21T08:35:02;19.03;;;8.00;;
32082;SDS011;18597;48.328;7.932;2024-02-21T08:37:30;20.13;;;7.70;;
32082;SDS011;18597;48.328;7.932;2024-02-21T08:39:56;20.57;;;11.27;;
32082;SDS011;18597;48.328;7.932;2024-02-21T08:42:21;13.70;;;6.93;;
32082;SDS011;18597;48.328;7.932;2024-02-21T08:44:47;8.53;;;4.57;;
32082;SDS011;18597;48.328;7.932;2024-02-21T08:47:13;7.03;;;4.27;;
32082;SDS011;18597;48.328;7.932;2024-02-21T08:49:39;6.83;;;5.20;;
32082;SDS011;18597;48.328;7.932;2024-02-21T08:52:05;10.70;;;4.53;;
32082;SDS011;18597;48.328;7.932;2024-02-21T08:54:32;9.87;;;4.00;;
32082;SDS011;18597;48.328;7.932;2024-02-21T08:56:58;13.47;;;3.67;;
32082;SDS011;18597;48.328;7.932;2024-02-21T08:59:24;8.33;;;4.67;;
32082;SDS011;18597;48.328;7.932;2024-02-21T09:01:51;10.87;;;5.23;;
32082;SDS011;18597;48.328;7.932;2024-02-21T09:04:18;11.40;;;4.20;;
32082;SDS011;18597;48.328;7.932;2024-02-21T09:06:44;9.73;;;4.63;;
32082;SDS011;18597;48.328;7.932;2024-02-21T09:09:11;8.50;;;4.00;;
32082;SDS011;18597;48.328;7.932;2024-02-21T09:11:37;8.57;;;6.17;;
32082;SDS011;18597;48.328;7.932;2024-02-21T09:14:05;8.03;;;5.00;;
32082;SDS011;18597;48.328;7.932;2024-02-21T09:16:32;7.33;;;5.27;;
32082;SDS011;18597;48.328;7.932;2024-02-21T09:18:58;5.53;;;5.03;;
32082;SDS011;18597;48.328;7.932;2024-02-21T09:21:24;4.73;;;4.33;;
32082;SDS011;18597;48.328;7.932;2024-02-21T09:23:50;13.77;;;5.50;;
32082;SDS011;18597;48.328;7.932;2024-02-21T09:26:16;8.60;;;4.40;;
32082;SDS011;18597;48.328;7.932;2024-02-21T09:28:43;8.43;;;4.23;;
32082;SDS011;18597;48.328;7.932;2024-02-21T09:31:10;8.87;;;4.47;;
32082;SDS011;18597;48.328;7.932;2024-02-21T09:33:36;12.43;;;4.33;;
32082;SDS011;18597;48.328;7.932;2024-02-21T09:36:02;6.17;;;4.70;;
32082;SDS011;18597;48.328;7.932;2024-02-21T09:38:30;5.20;;;4.20;;
32082;SDS011;18597;48.328;7.932;2024-02-21T09:43:41;7.13;;;4.10;;
32082;SDS011;18597;48.328;7.932;2024-02-21T09:46:08;6.00;;;4.50;;
32082;SDS011;18597;48.328;7.932;2024-02-21T09:48:58;7.03;;;3.80;;
32082;SDS011;18597;48.328;7.932;2024-02-21T09:51:56;8.10;;;6.00;;
32082;SDS011;18597;48.328;7.932;2024-02-21T09:54:25;8.03;;;5.27;;
32082;SDS011;18597;48.328;7.932;2024-02-21T09:56:53;7.57;;;4.70;;
32082;SDS011;18597;48.328;7.932;2024-02-21T09:59:19;7.57;;;5.23;;
32082;SDS011;18597;48.328;7.932;2024-02-21T10:01:45;8.10;;;5.40;;
32082;SDS011;18597;48.328;7.932;2024-02-21T10:04:12;14.47;;;6.60;;
32082;SDS011;18597;48.328;7.932;2024-02-21T10:06:38;8.20;;;6.00;;
32082;SDS011;18597;48.328;7.932;2024-02-21T10:09:05;13.83;;;6.40;;
32082;SDS011;18597;48.328;7.932;2024-02-21T10:11:31;10.43;;;5.43;;
32082;SDS011;18597;48.328;7.932;2024-02-21T10:14:04;3.80;;;3.50;;
32082;SDS011;18597;48.328;7.932;2024-02-21T10:16:31;7.53;;;5.17;;
32082;SDS011;18597;48.328;7.932;2024-02-21T10:18:58;12.70;;;4.13;;
32082;SDS011;18597;48.328;7.932;2024-02-21T10:21:24;6.20;;;4.17;;
32082;SDS011;18597;48.328;7.932;2024-02-21T10:23:50;10.07;;;3.77;;
32082;SDS011;18597;48.328;7.932;2024-02-21T10:26:18;7.77;;;3.37;;
32082;SDS011;18597;48.328;7.932;2024-02-21T10:28:45;3.60;;;2.73;;
32082;SDS011;18597;48.328;7.932;2024-02-21T10:31:28;6.80;;;3.93;;
32082;SDS011;18597;48.328;7.932;2024-02-21T10:33:57;6.30;;;5.37;;
32082;SDS011;18597;48.328;7.932;2024-02-21T10:36:27;6.67;;;5.37;;
32082;SDS011;18597;48.328;7.932;2024-02-21T10:38:55;6.73;;;5.03;;
32082;SDS011;18597;48.328;7.932;2024-02-21T10:41:21;4.50;;;3.70;;
32082;SDS011;18597;48.328;7.932;2024-02-21T10:43:51;3.90;;;3.00;;
32082;SDS011;18597;48.328;7.932;2024-02-21T10:46:19;2.57;;;2.37;;
32082;SDS011;18597;48.328;7.932;2024-02-21T10:48:48;8.50;;;3.70;;
32082;SDS011;18597;48.328;7.932;2024-02-21T10:51:35;9.27;;;4.10;;
32082;SDS011;18597;48.328;7.932;2024-02-21T10:54:13;3.23;;;2.77;;
32082;SDS011;18597;48.328;7.932;2024-02-21T10:57:08;7.50;;;2.80;;
32082;SDS011;18597;48.328;7.932;2024-02-21T10:59:36;3.43;;;3.13;;
32082;SDS011;18597;48.328;7.932;2024-02-21T11:02:04;1.20;;;1.10;;
32082;SDS011;18597;48.328;7.932;2024-02-21T11:04:30;5.13;;;2.27;;
32082;SDS011;18597;48.328;7.932;2024-02-21T11:07:01;1.60;;;1.50;;
32082;SDS011;18597;48.328;7.932;2024-02-21T11:09:30;3.67;;;2.10;;
32082;SDS011;18597;48.328;7.932;2024-02-21T11:11:58;2.70;;;2.50;;
32082;SDS011;18597;48.328;7.932;2024-02-21T11:14:27;2.83;;;2.60;;
32082;SDS011;18597;48.328;7.932;2024-02-21T11:16:53;8.63;;;3.90;;
32082;SDS011;18597;48.328;7.932;2024-02-21T11:19:21;10.40;;;2.97;;
32082;SDS011;18597;48.328;7.932;2024-02-21T11:21:50;3.27;;;1.90;;
32082;SDS011;18597;48.328;7.932;2024-02-21T11:24:26;3.03;;;1.70;;
32082;SDS011;18597;48.328;7.932;2024-02-21T11:27:13;3.80;;;2.23;;
32082;SDS011;18597;48.328;7.932;2024-02-21T11:29:45;2.03;;;1.80;;
32082;SDS011;18597;48.328;7.932;2024-02-21T11:32:15;5.23;;;2.60;;
32082;SDS011;18597;48.328;7.932;2024-02-21T11:35:02;2.50;;;2.00;;
32082;SDS011;18597;48.328;7.932;2024-02-21T11:37:31;2.70;;;2.50;;
32082;SDS011;18597;48.328;7.932;2024-02-21T11:39:59;4.97;;;2.93;;
32082;SDS011;18597;48.328;7.932;2024-02-21T11:42:26;1.40;;;1.30;;
32082;SDS011;18597;48.328;7.932;2024-02-21T11:44:53;3.53;;;1.90;;
32082;SDS011;18597;48.328;7.932;2024-02-21T11:47:22;4.80;;;1.63;;
32082;SDS011;18597;48.328;7.932;2024-02-21T11:49:48;2.10;;;1.50;;
32082;SDS011;18597;48.328;7.932;2024-02-21T11:52:18;1.60;;;1.40;;
32082;SDS011;18597;48.328;7.932;2024-02-21T11:54:47;1.83;;;1.73;;
32082;SDS011;18597;48.328;7.932;2024-02-21T11:57:13;3.43;;;1.97;;
32082;SDS011;18597;48.328;7.932;2024-02-21T11:59:39;2.40;;;1.50;;
32082;SDS011;18597;48.328;7.932;2024-02-21T12:02:06;3.63;;;1.90;;
32082;SDS011;18597;48.328;7.932;2024-02-21T12:04:32;2.73;;;1.20;;
32082;SDS011;18597;48.328;7.932;2024-02-21T12:06:58;1.33;;;1.33;;
32082;SDS011;18597;48.328;7.932;2024-02-21T12:09:25;2.30;;;2.20;;
32082;SDS011;18597;48.328;7.932;2024-02-21T12:11:59;3.80;;;2.17;;
32082;SDS011;18597;48.328;7.932;2024-02-21T12:14:28;1.00;;;1.00;;
32082;SDS011;18597;48.328;7.932;2024-02-21T12:16:55;4.70;;;1.70;;
32082;SDS011;18597;48.328;7.932;2024-02-21T12:19:21;1.77;;;1.67;;
32082;SDS011;18597;48.328;7.932;2024-02-21T12:21:48;8.63;;;1.53;;
32082;SDS011;18597;48.328;7.932;2024-02-21T12:24:16;4.13;;;1.40;;
32082;SDS011;18597;48.328;7.932;2024-02-21T12:26:51;6.70;;;1.30;;
32082;SDS011;18597;48.328;7.932;2024-02-21T12:29:19;4.13;;;1.67;;
32082;SDS011;18597;48.328;7.932;2024-02-21T12:31:46;2.33;;;1.63;;
32082;SDS011;18597;48.328;7.932;2024-02-21T12:34:12;1.53;;;1.43;;
32082;SDS011;18597;48.328;7.932;2024-02-21T12:36:40;1.50;;;1.40;;
32082;SDS011;18597;48.328;7.932;2024-02-21T12:39:08;2.37;;;1.33;;
32082;SDS011;18597;48.328;7.932;2024-02-21T12:41:35;3.67;;;1.40;;
32082;SDS011;18597;48.328;7.932;2024-02-21T12:44:04;2.47;;;1.00;;
32082;SDS011;18597;48.328;7.932;2024-02-21T12:46:32;1.13;;;1.13;;
32082;SDS011;18597;48.328;7.932;2024-02-21T12:48:59;2.30;;;1.47;;
32082;SDS011;18597;48.328;7.932;2024-02-21T12:51:26;3.90;;;1.40;;
32082;SDS011;18597;48.328;7.932;2024-02-21T12:53:52;2.37;;;1.50;;
32082;SDS011;18597;48.328;7.932;2024-02-21T12:56:18;1.23;;;1.03;;
32082;SDS011;18597;48.328;7.932;2024-02-21T12:58:44;3.10;;;1.57;;
32082;SDS011;18597;48.328;7.932;2024-02-21T13:01:10;1.93;;;1.30;;
32082;SDS011;18597;48.328;7.932;2024-02-21T13:03:36;1.47;;;1.37;;
32082;SDS011;18597;48.328;7.932;2024-02-21T13:06:03;2.30;;;1.10;;
32082;SDS011;18597;48.328;7.932;2024-02-21T13:08:29;1.50;;;1.33;;
32082;SDS011;18597;48.328;7.932;2024-02-21T13:10:55;1.00;;;1.00;;
32082;SDS011;18597;48.328;7.932;2024-02-21T13:13:21;1.70;;;0.93;;
32082;SDS011;18597;48.328;7.932;2024-02-21T13:15:47;2.83;;;1.10;;
32082;SDS011;18597;48.328;7.932;2024-02-21T13:18:13;1.00;;;1.00;;
32082;SDS011;18597;48.328;7.932;2024-02-21T13:20:39;1.07;;;1.03;;
32082;SDS011;18597;48.328;7.932;2024-02-21T13:23:05;2.33;;;1.70;;
32082;SDS011;18597;48.328;7.932;2024-02-21T13:25:30;1.40;;;1.40;;
32082;SDS011;18597;48.328;7.932;2024-02-21T13:27:56;4.30;;;1.47;;
32082;SDS011;18597;48.328;7.932;2024-02-21T13:30:22;3.23;;;2.93;;
32082;SDS011;18597;48.328;7.932;2024-02-21T13:32:49;1.20;;;1.20;;
32082;SDS011;18597;48.328;7.932;2024-02-21T13:35:15;2.13;;;1.80;;
32082;SDS011;18597;48.328;7.932;2024-02-21T13:37:41;0.90;;;0.90;;
32082;SDS011;18597;48.328;7.932;2024-02-21T13:40:07;1.13;;;1.13;;
32082;SDS011;18597;48.328;7.932;2024-02-21T13:42:34;1.30;;;1.23;;
32082;SDS011;18597;48.328;7.932;2024-02-21T13:45:01;0.97;;;0.97;;
32082;SDS011;18597;48.328;7.932;2024-02-21T13:47:28;1.50;;;0.90;;
32082;SDS011;18597;48.328;7.932;2024-02-21T13:49:54;4.90;;;1.53;;
32082;SDS011;18597;48.328;7.932;2024-02-21T13:52:20;0.73;;;0.73;;
32082;SDS011;18597;48.328;7.932;2024-02-21T13:54:47;5.30;;;1.30;;
32082;SDS011;18597;48.328;7.932;2024-02-21T13:57:14;1.37;;;1.27;;
32082;SDS011;18597;48.328;7.932;2024-02-21T13:59:39;4.73;;;0.80;;
32082;SDS011;18597;48.328;7.932;2024-02-21T14:02:05;1.13;;;1.03;;
32082;SDS011;18597;48.328;7.932;2024-02-21T14:04:33;1.90;;;0.70;;
32082;SDS011;18597;48.328;7.932;2024-02-21T14:06:59;2.30;;;0.90;;
32082;SDS011;18597;48.328;7.932;2024-02-21T14:09:25;4.90;;;1.33;;
32082;SDS011;18597;48.328;7.932;2024-02-21T14:11:52;3.27;;;1.30;;
32082;SDS011;18597;48.328;7.932;2024-02-21T14:14:18;1.90;;;1.10;;
32082;SDS011;18597;48.328;7.932;2024-02-21T14:16:44;1.60;;;1.43;;
32082;SDS011;18597;48.328;7.932;2024-02-21T14:19:12;1.70;;;1.60;;
32082;SDS011;18597;48.328;7.932;2024-02-21T14:21:39;4.10;;;2.80;;
32082;SDS011;18597;48.328;7.932;2024-02-21T14:24:05;6.63;;;2.87;;
32082;SDS011;18597;48.328;7.932;2024-02-21T14:26:31;9.70;;;8.90;;
32082;SDS011;18597;48.328;7.932;2024-02-21T14:28:57;4.07;;;3.10;;
32082;SDS011;18597;48.328;7.932;2024-02-21T14:31:24;1.90;;;1.40;;
32082;SDS011;18597;48.328;7.932;2024-02-21T14:33:50;3.73;;;3.57;;
32082;SDS011;18597;48.328;7.932;2024-02-21T14:36:17;1.00;;;1.00;;
32082;SDS011;18597;48.328;7.932;2024-02-21T14:38:43;2.10;;;1.50;;
32082;SDS011;18597;48.328;7.932;2024-02-21T14:41:10;8.60;;;1.17;;
32082;SDS011;18597;48.328;7.932;2024-02-21T14:43:38;0.90;;;0.90;;
32082;SDS011;18597;48.328;7.932;2024-02-21T14:46:04;2.97;;;2.60;;